EZY31CL EGKK-EHAM
Flight info
| Callsign | EZY31CL |
|---|---|
| Flight time | 0h 46m |
| Altitude | 27000 |
| Route | FRANE M604 GASBA M197 REDFA |
| Aircraft | A320/M-SDE3FGHIRWY/LB1 |
Departure
| Time | 2026-04-17 12:37 |
|---|---|
| Airport | London Gatwick Airport (EGKK) |
Arrival
| Time | 2026-04-17 13:23 |
|---|---|
| Airport | Amsterdam Airport Schiphol (EHAM) |
| Time | Latitude | Longitude | Altitude | Speed | Heading |
|---|---|---|---|---|---|
| 2026-04-17 12:04 | 51.16083 | -0.18279 | 213 ft | 0 kts | 270° |
| 2026-04-17 12:05 | 51.16083 | -0.18271 | 217 ft | 0 kts | 270° |
| 2026-04-17 12:25 | 51.16083 | -0.18265 | 204 ft | 3 kts | 270° |
| 2026-04-17 12:25 | 51.16084 | -0.18232 | 216 ft | 3 kts | 270° |
| 2026-04-17 12:25 | 51.16084 | -0.18201 | 216 ft | 3 kts | 258° |
| 2026-04-17 12:26 | 51.16090 | -0.18176 | 214 ft | 3 kts | 213° |
| 2026-04-17 12:26 | 51.16104 | -0.18169 | 213 ft | 1 kts | 168° |
| 2026-04-17 12:26 | 51.16121 | -0.18175 | 212 ft | 2 kts | 168° |
| 2026-04-17 12:26 | 51.16122 | -0.18175 | 212 ft | 0 kts | 168° |
| 2026-04-17 12:29 | 51.16097 | -0.18167 | 215 ft | 6 kts | 168° |
| 2026-04-17 12:30 | 51.16050 | -0.18151 | 204 ft | 8 kts | 168° |
| 2026-04-17 12:30 | 51.15990 | -0.18130 | 208 ft | 10 kts | 167° |
| 2026-04-17 12:30 | 51.15918 | -0.18105 | 204 ft | 12 kts | 167° |
| 2026-04-17 12:30 | 51.15834 | -0.18075 | 204 ft | 13 kts | 167° |
| 2026-04-17 12:31 | 51.15740 | -0.18042 | 209 ft | 15 kts | 167° |
| 2026-04-17 12:31 | 51.15699 | -0.17966 | 207 ft | 9 kts | 86° |
| 2026-04-17 12:31 | 51.15711 | -0.17871 | 206 ft | 9 kts | 78° |
| 2026-04-17 12:31 | 51.15727 | -0.17752 | 206 ft | 12 kts | 76° |
| 2026-04-17 12:32 | 51.15744 | -0.17633 | 207 ft | 10 kts | 78° |
| 2026-04-17 12:32 | 51.15748 | -0.17530 | 210 ft | 9 kts | 121° |
| 2026-04-17 12:32 | 51.15670 | -0.17480 | 210 ft | 15 kts | 169° |
| 2026-04-17 12:32 | 51.15566 | -0.17445 | 209 ft | 16 kts | 168° |
| 2026-04-17 12:33 | 51.15456 | -0.17405 | 207 ft | 17 kts | 166° |
| 2026-04-17 12:33 | 51.15340 | -0.17366 | 207 ft | 17 kts | 168° |
| 2026-04-17 12:33 | 51.15264 | -0.17332 | 214 ft | 11 kts | 150° |
| 2026-04-17 12:33 | 51.15250 | -0.17208 | 204 ft | 18 kts | 79° |
| 2026-04-17 12:34 | 51.15276 | -0.17011 | 209 ft | 17 kts | 78° |
| 2026-04-17 12:34 | 51.15291 | -0.16859 | 204 ft | 9 kts | 103° |
| 2026-04-17 12:34 | 51.15283 | -0.16837 | 207 ft | 6 kts | 123° |
| 2026-04-17 12:34 | 51.15227 | -0.16807 | 212 ft | 10 kts | 168° |
| 2026-04-17 12:35 | 51.15154 | -0.16791 | 202 ft | 13 kts | 185° |
| 2026-04-17 12:35 | 51.15107 | -0.16903 | 206 ft | 14 kts | 257° |
| 2026-04-17 12:35 | 51.15061 | -0.17234 | 204 ft | 62 kts | 257° |
| 2026-04-17 12:35 | 51.14921 | -0.18250 | 206 ft | 123 kts | 257° |
| 2026-04-17 12:37 | 51.15011 | -0.31522 | 3797 ft | 238 kts | 322° |
| 2026-04-17 12:37 | 51.16604 | -0.32290 | 3970 ft | 247 kts | 360° |
| 2026-04-17 12:38 | 51.18212 | -0.31440 | 4006 ft | 252 kts | 37° |
| 2026-04-17 12:38 | 51.19257 | -0.29231 | 4011 ft | 251 kts | 75° |
| 2026-04-17 12:38 | 51.19632 | -0.26530 | 4011 ft | 250 kts | 82° |
| 2026-04-17 12:38 | 51.19951 | -0.23799 | 4009 ft | 251 kts | 83° |
| 2026-04-17 12:39 | 51.20270 | -0.21054 | 4009 ft | 251 kts | 82° |
| 2026-04-17 12:39 | 51.20612 | -0.18195 | 4013 ft | 275 kts | 82° |
| 2026-04-17 12:39 | 51.20994 | -0.15159 | 4010 ft | 282 kts | 81° |
| 2026-04-17 12:39 | 51.21398 | -0.12066 | 4206 ft | 290 kts | 80° |
| 2026-04-17 12:40 | 51.21812 | -0.08944 | 4879 ft | 292 kts | 81° |
| 2026-04-17 12:40 | 51.22231 | -0.05796 | 4987 ft | 289 kts | 80° |
| 2026-04-17 12:40 | 51.22646 | -0.02663 | 5004 ft | 288 kts | 80° |
| 2026-04-17 12:40 | 51.22924 | -0.00554 | 5002 ft | 287 kts | 80° |
| 2026-04-17 12:41 | 51.23332 | 0.02571 | 4835 ft | 287 kts | 80° |
| 2026-04-17 12:41 | 51.23737 | 0.05691 | 4809 ft | 287 kts | 80° |
| 2026-04-17 12:41 | 51.24139 | 0.08811 | 4782 ft | 287 kts | 80° |
| 2026-04-17 12:41 | 51.24536 | 0.11903 | 4751 ft | 287 kts | 80° |
| 2026-04-17 12:42 | 51.24936 | 0.15017 | 4723 ft | 287 kts | 80° |
| 2026-04-17 12:42 | 51.25335 | 0.18177 | 4698 ft | 287 kts | 83° |
| 2026-04-17 12:42 | 51.25419 | 0.21308 | 4670 ft | 285 kts | 98° |
| 2026-04-17 12:42 | 51.25205 | 0.24451 | 4641 ft | 284 kts | 99° |
| 2026-04-17 12:43 | 51.24993 | 0.27581 | 4618 ft | 283 kts | 99° |
| 2026-04-17 12:43 | 51.24785 | 0.30712 | 4592 ft | 283 kts | 99° |
| 2026-04-17 12:43 | 51.24579 | 0.33841 | 4574 ft | 284 kts | 99° |
| 2026-04-17 12:43 | 51.24373 | 0.36985 | 4571 ft | 283 kts | 99° |
| 2026-04-17 12:44 | 51.24166 | 0.40110 | 4575 ft | 283 kts | 99° |
| 2026-04-17 12:44 | 51.23955 | 0.43241 | 4568 ft | 283 kts | 98° |
| 2026-04-17 12:44 | 51.23741 | 0.46364 | 4574 ft | 282 kts | 99° |
| 2026-04-17 12:44 | 51.23526 | 0.49477 | 4570 ft | 282 kts | 98° |
| 2026-04-17 12:45 | 51.23332 | 0.52544 | 4577 ft | 282 kts | 94° |
| 2026-04-17 12:45 | 51.23705 | 0.55601 | 4592 ft | 284 kts | 64° |
| 2026-04-17 12:45 | 51.24938 | 0.58025 | 4625 ft | 283 kts | 34° |
| 2026-04-17 12:45 | 51.26716 | 0.59254 | 4650 ft | 278 kts | 5° |
| 2026-04-17 12:46 | 51.28629 | 0.59545 | 4676 ft | 276 kts | 1° |
| 2026-04-17 12:46 | 51.30555 | 0.59833 | 4695 ft | 279 kts | 6° |
| 2026-04-17 12:46 | 51.32456 | 0.60517 | 5172 ft | 287 kts | 10° |
| 2026-04-17 12:46 | 51.34385 | 0.61236 | 6065 ft | 285 kts | 10° |
| 2026-04-17 12:47 | 51.36322 | 0.61957 | 6006 ft | 283 kts | 9° |
| 2026-04-17 12:47 | 51.38247 | 0.62675 | 5990 ft | 283 kts | 10° |
| 2026-04-17 12:47 | 51.40178 | 0.63399 | 6257 ft | 290 kts | 11° |
| 2026-04-17 12:47 | 51.42134 | 0.64137 | 7231 ft | 287 kts | 11° |
| 2026-04-17 12:48 | 51.44091 | 0.64877 | 8085 ft | 291 kts | 11° |
| 2026-04-17 12:48 | 51.46075 | 0.65628 | 8911 ft | 295 kts | 9° |
| 2026-04-17 12:48 | 51.48086 | 0.66388 | 9725 ft | 299 kts | 9° |
| 2026-04-17 12:48 | 51.50129 | 0.67162 | 10434 ft | 307 kts | 9° |
| 2026-04-17 12:49 | 51.52289 | 0.67975 | 10686 ft | 330 kts | 10° |
| 2026-04-17 12:49 | 51.54608 | 0.68847 | 10925 ft | 352 kts | 10° |
| 2026-04-17 12:49 | 51.57030 | 0.69764 | 11467 ft | 362 kts | 10° |
| 2026-04-17 12:49 | 51.59466 | 0.70694 | 12140 ft | 367 kts | 10° |
| 2026-04-17 12:50 | 51.61974 | 0.71651 | 12826 ft | 372 kts | 10° |
| 2026-04-17 12:50 | 51.64515 | 0.72621 | 13502 ft | 377 kts | 10° |
| 2026-04-17 12:50 | 51.67092 | 0.73608 | 14147 ft | 382 kts | 10° |
| 2026-04-17 12:50 | 51.69698 | 0.74609 | 14733 ft | 387 kts | 10° |
| 2026-04-17 12:51 | 51.72333 | 0.75621 | 15310 ft | 391 kts | 10° |
| 2026-04-17 12:51 | 51.74995 | 0.76674 | 15907 ft | 396 kts | 13° |
| 2026-04-17 12:51 | 51.77587 | 0.78291 | 16480 ft | 404 kts | 24° |
| 2026-04-17 12:51 | 51.80008 | 0.80673 | 17051 ft | 411 kts | 36° |
| 2026-04-17 12:52 | 51.82149 | 0.83770 | 17618 ft | 417 kts | 47° |
| 2026-04-17 12:52 | 51.83924 | 0.87505 | 18173 ft | 420 kts | 59° |
| 2026-04-17 12:52 | 51.85303 | 0.91687 | 18702 ft | 423 kts | 69° |
| 2026-04-17 12:52 | 51.86266 | 0.96115 | 19198 ft | 425 kts | 76° |
| 2026-04-17 12:53 | 51.87119 | 1.00713 | 19741 ft | 427 kts | 75° |
| 2026-04-17 12:53 | 51.87969 | 1.05328 | 20274 ft | 429 kts | 76° |
| 2026-04-17 12:53 | 51.88818 | 1.09981 | 20798 ft | 433 kts | 76° |
| 2026-04-17 12:53 | 51.89665 | 1.14684 | 21307 ft | 436 kts | 76° |
| 2026-04-17 12:54 | 51.90510 | 1.19414 | 21810 ft | 440 kts | 76° |
| 2026-04-17 12:54 | 51.91362 | 1.24202 | 22295 ft | 443 kts | 76° |
| 2026-04-17 12:54 | 51.92217 | 1.29014 | 22765 ft | 447 kts | 76° |
| 2026-04-17 12:54 | 51.93084 | 1.33881 | 23231 ft | 450 kts | 76° |
| 2026-04-17 12:55 | 51.93959 | 1.38773 | 23685 ft | 454 kts | 76° |
| 2026-04-17 12:55 | 51.94840 | 1.43702 | 24062 ft | 457 kts | 76° |
| 2026-04-17 12:55 | 51.95721 | 1.48663 | 24431 ft | 459 kts | 76° |
| 2026-04-17 12:55 | 51.96605 | 1.53662 | 24829 ft | 461 kts | 76° |
| 2026-04-17 12:56 | 51.97488 | 1.58678 | 25194 ft | 463 kts | 76° |
| 2026-04-17 12:56 | 51.98357 | 1.63652 | 25538 ft | 466 kts | 76° |
| 2026-04-17 12:56 | 51.99240 | 1.68716 | 25869 ft | 468 kts | 76° |
| 2026-04-17 12:56 | 52.00098 | 1.73844 | 26216 ft | 470 kts | 77° |
| 2026-04-17 12:57 | 52.00909 | 1.78994 | 26560 ft | 473 kts | 78° |
| 2026-04-17 12:57 | 52.01696 | 1.84190 | 26884 ft | 475 kts | 78° |
| 2026-04-17 12:57 | 52.02477 | 1.89420 | 27136 ft | 477 kts | 78° |
| 2026-04-17 12:57 | 52.03260 | 1.94635 | 27199 ft | 473 kts | 78° |
| 2026-04-17 12:58 | 52.04042 | 1.99805 | 27190 ft | 470 kts | 77° |
| 2026-04-17 12:58 | 52.04827 | 2.04951 | 27193 ft | 469 kts | 77° |
| 2026-04-17 12:58 | 52.05616 | 2.10090 | 27193 ft | 468 kts | 77° |
| 2026-04-17 12:58 | 52.06406 | 2.15222 | 27066 ft | 467 kts | 77° |
| 2026-04-17 12:59 | 52.07189 | 2.20323 | 26678 ft | 462 kts | 77° |
| 2026-04-17 12:59 | 52.07950 | 2.25324 | 26024 ft | 461 kts | 78° |
| 2026-04-17 12:59 | 52.08711 | 2.30369 | 25401 ft | 458 kts | 78° |
| 2026-04-17 12:59 | 52.09463 | 2.35401 | 24784 ft | 456 kts | 78° |
| 2026-04-17 13:00 | 52.10209 | 2.40407 | 24188 ft | 454 kts | 78° |
| 2026-04-17 13:00 | 52.10966 | 2.45383 | 23571 ft | 452 kts | 76° |
| 2026-04-17 13:00 | 52.12062 | 2.50124 | 23225 ft | 443 kts | 65° |
| 2026-04-17 13:00 | 52.13551 | 2.54468 | 23199 ft | 437 kts | 59° |
| 2026-04-17 13:01 | 52.15086 | 2.58678 | 23201 ft | 425 kts | 59° |
| 2026-04-17 13:01 | 52.16541 | 2.62706 | 23196 ft | 409 kts | 60° |
| 2026-04-17 13:01 | 52.17950 | 2.66630 | 23197 ft | 394 kts | 60° |
| 2026-04-17 13:01 | 52.19321 | 2.70458 | 23199 ft | 389 kts | 60° |
| 2026-04-17 13:02 | 52.20683 | 2.74257 | 23198 ft | 388 kts | 60° |
| 2026-04-17 13:02 | 52.22048 | 2.78059 | 23203 ft | 387 kts | 60° |
| 2026-04-17 13:02 | 52.23410 | 2.81853 | 23204 ft | 387 kts | 60° |
| 2026-04-17 13:02 | 52.24773 | 2.85646 | 23204 ft | 387 kts | 60° |
| 2026-04-17 13:03 | 52.26229 | 2.89338 | 23196 ft | 386 kts | 48° |
| 2026-04-17 13:03 | 52.28218 | 2.92256 | 23013 ft | 383 kts | 34° |
| 2026-04-17 13:03 | 52.30360 | 2.94726 | 22549 ft | 381 kts | 32° |
| 2026-04-17 13:03 | 52.32564 | 2.97199 | 22097 ft | 378 kts | 32° |
| 2026-04-17 13:04 | 52.34696 | 2.99594 | 21745 ft | 374 kts | 32° |
| 2026-04-17 13:04 | 52.36832 | 3.01997 | 21356 ft | 371 kts | 32° |
| 2026-04-17 13:04 | 52.38953 | 3.04381 | 20964 ft | 368 kts | 32° |
| 2026-04-17 13:04 | 52.40968 | 3.06968 | 20587 ft | 367 kts | 46° |
| 2026-04-17 13:05 | 52.42420 | 3.10384 | 20203 ft | 365 kts | 60° |
| 2026-04-17 13:05 | 52.43636 | 3.14026 | 19815 ft | 364 kts | 62° |
| 2026-04-17 13:05 | 52.44830 | 3.17684 | 19453 ft | 362 kts | 62° |
| 2026-04-17 13:05 | 52.46011 | 3.21311 | 19085 ft | 359 kts | 62° |
| 2026-04-17 13:06 | 52.47186 | 3.24920 | 18740 ft | 357 kts | 62° |
| 2026-04-17 13:06 | 52.48338 | 3.28456 | 18403 ft | 355 kts | 62° |
| 2026-04-17 13:06 | 52.49507 | 3.32021 | 18013 ft | 353 kts | 62° |
| 2026-04-17 13:06 | 52.50667 | 3.35559 | 17636 ft | 351 kts | 62° |
| 2026-04-17 13:07 | 52.51818 | 3.39075 | 17266 ft | 349 kts | 62° |
| 2026-04-17 13:07 | 52.52964 | 3.42577 | 16902 ft | 347 kts | 62° |
| 2026-04-17 13:07 | 52.54104 | 3.46065 | 16558 ft | 345 kts | 62° |
| 2026-04-17 13:07 | 52.55236 | 3.49530 | 16192 ft | 343 kts | 62° |
| 2026-04-17 13:08 | 52.56258 | 3.53044 | 15868 ft | 339 kts | 75° |
| 2026-04-17 13:08 | 52.56586 | 3.56844 | 15538 ft | 333 kts | 90° |
| 2026-04-17 13:08 | 52.56615 | 3.60594 | 15204 ft | 332 kts | 92° |
| 2026-04-17 13:08 | 52.56615 | 3.64380 | 14876 ft | 330 kts | 92° |
| 2026-04-17 13:09 | 52.56610 | 3.68153 | 14555 ft | 328 kts | 92° |
| 2026-04-17 13:09 | 52.56603 | 3.71892 | 14246 ft | 326 kts | 92° |
| 2026-04-17 13:09 | 52.56594 | 3.75609 | 13927 ft | 324 kts | 92° |
| 2026-04-17 13:09 | 52.56585 | 3.79317 | 13573 ft | 323 kts | 92° |
| 2026-04-17 13:10 | 52.56575 | 3.82988 | 13232 ft | 321 kts | 92° |
| 2026-04-17 13:10 | 52.56566 | 3.86648 | 12877 ft | 319 kts | 92° |
| 2026-04-17 13:10 | 52.56557 | 3.90286 | 12526 ft | 317 kts | 92° |
| 2026-04-17 13:10 | 52.56548 | 3.93904 | 12177 ft | 315 kts | 92° |
| 2026-04-17 13:11 | 52.56539 | 3.97501 | 11831 ft | 314 kts | 92° |
| 2026-04-17 13:11 | 52.56530 | 4.01073 | 11473 ft | 312 kts | 92° |
| 2026-04-17 13:11 | 52.56523 | 4.04637 | 11126 ft | 310 kts | 92° |
| 2026-04-17 13:11 | 52.56515 | 4.08174 | 10783 ft | 309 kts | 92° |
| 2026-04-17 13:12 | 52.56507 | 4.11684 | 10450 ft | 307 kts | 92° |
| 2026-04-17 13:12 | 52.56498 | 4.18552 | 9979 ft | 289 kts | 92° |
| 2026-04-17 13:12 | 52.56501 | 4.21751 | 9752 ft | 273 kts | 92° |
| 2026-04-17 13:13 | 52.56508 | 4.24900 | 8844 ft | 282 kts | 92° |
| 2026-04-17 13:13 | 52.56522 | 4.28213 | 7803 ft | 295 kts | 92° |
| 2026-04-17 13:13 | 52.56546 | 4.31532 | 7396 ft | 282 kts | 92° |
| 2026-04-17 13:13 | 52.56582 | 4.34629 | 7255 ft | 260 kts | 92° |
| 2026-04-17 13:14 | 52.56624 | 4.37424 | 7215 ft | 252 kts | 92° |
| 2026-04-17 13:14 | 52.56669 | 4.40293 | 7208 ft | 250 kts | 92° |
| 2026-04-17 13:14 | 52.56714 | 4.43149 | 7208 ft | 250 kts | 92° |
| 2026-04-17 13:14 | 52.56758 | 4.46001 | 7208 ft | 250 kts | 92° |
| 2026-04-17 13:15 | 52.56800 | 4.48871 | 6911 ft | 253 kts | 93° |
| 2026-04-17 13:15 | 52.56843 | 4.51849 | 5865 ft | 269 kts | 92° |
| 2026-04-17 13:15 | 52.56880 | 4.55001 | 4811 ft | 282 kts | 92° |
| 2026-04-17 13:15 | 52.56916 | 4.58133 | 4389 ft | 268 kts | 92° |
| 2026-04-17 13:16 | 52.56955 | 4.61065 | 4252 ft | 245 kts | 92° |
| 2026-04-17 13:16 | 52.57000 | 4.63746 | 4198 ft | 223 kts | 93° |
| 2026-04-17 13:16 | 52.57054 | 4.66165 | 4230 ft | 203 kts | 92° |
| 2026-04-17 13:16 | 52.57114 | 4.68446 | 4213 ft | 198 kts | 92° |
| 2026-04-17 13:17 | 52.57174 | 4.70705 | 4204 ft | 197 kts | 92° |
| 2026-04-17 13:17 | 52.57230 | 4.72953 | 4144 ft | 195 kts | 92° |
| 2026-04-17 13:17 | 52.57288 | 4.75174 | 3825 ft | 195 kts | 93° |
| 2026-04-17 13:17 | 52.57108 | 4.77321 | 3519 ft | 185 kts | 123° |
| 2026-04-17 13:18 | 52.56231 | 4.78686 | 3211 ft | 172 kts | 163° |
| 2026-04-17 13:18 | 52.55074 | 4.78881 | 3017 ft | 167 kts | 190° |
| 2026-04-17 13:18 | 52.53941 | 4.78432 | 3000 ft | 168 kts | 206° |
| 2026-04-17 13:18 | 52.53011 | 4.77301 | 3006 ft | 170 kts | 220° |
| 2026-04-17 13:19 | 52.52152 | 4.75959 | 2997 ft | 171 kts | 222° |
| 2026-04-17 13:19 | 52.51297 | 4.74611 | 3007 ft | 170 kts | 221° |
| 2026-04-17 13:19 | 52.50437 | 4.73280 | 2970 ft | 170 kts | 217° |
| 2026-04-17 13:19 | 52.49380 | 4.72441 | 2678 ft | 169 kts | 192° |
| 2026-04-17 13:20 | 52.48204 | 4.72287 | 2430 ft | 169 kts | 185° |
| 2026-04-17 13:20 | 52.47030 | 4.72180 | 2199 ft | 168 kts | 185° |
| 2026-04-17 13:20 | 52.45856 | 4.72072 | 1970 ft | 169 kts | 185° |
| 2026-04-17 13:20 | 52.44678 | 4.71964 | 1740 ft | 171 kts | 185° |
| 2026-04-17 13:21 | 52.43466 | 4.71853 | 1514 ft | 181 kts | 185° |
| 2026-04-17 13:21 | 52.42234 | 4.71741 | 1239 ft | 167 kts | 186° |
| 2026-04-17 13:21 | 52.41131 | 4.71642 | 949 ft | 152 kts | 186° |
| 2026-04-17 13:21 | 52.40112 | 4.71549 | 844 ft | 142 kts | 186° |
| 2026-04-17 13:22 | 52.39159 | 4.71461 | 653 ft | 138 kts | 187° |
| 2026-04-17 13:22 | 52.38204 | 4.71375 | 475 ft | 134 kts | 185° |
| 2026-04-17 13:22 | 52.37588 | 4.71340 | 351 ft | 133 kts | 185° |
| 2026-04-17 13:22 | 52.36344 | 4.71209 | 106 ft | 134 kts | 185° |
| 2026-04-17 13:23 | 52.35446 | 4.71124 | 0 ft | 118 kts | 183° |
| 2026-04-17 13:23 | 52.34788 | 4.71067 | -1 ft | 69 kts | 183° |
| 2026-04-17 13:23 | 52.34543 | 4.71046 | -1 ft | 40 kts | 182° |
| 2026-04-17 13:23 | 52.34315 | 4.71126 | -3 ft | 26 kts | 156° |
| 2026-04-17 13:24 | 52.34153 | 4.71254 | -1 ft | 26 kts | 156° |
| 2026-04-17 13:24 | 52.33983 | 4.71278 | -1 ft | 25 kts | 183° |
| 2026-04-17 13:24 | 52.33756 | 4.71256 | -1 ft | 25 kts | 183° |
| 2026-04-17 13:24 | 52.33636 | 4.71246 | -1 ft | 26 kts | 183° |
| 2026-04-17 13:25 | 52.33461 | 4.71228 | -1 ft | 24 kts | 184° |
| 2026-04-17 13:25 | 52.33300 | 4.71215 | -1 ft | 21 kts | 182° |
| 2026-04-17 13:25 | 52.33185 | 4.71325 | -1 ft | 20 kts | 131° |
| 2026-04-17 13:25 | 52.33088 | 4.71504 | -1 ft | 22 kts | 131° |
| 2026-04-17 13:26 | 52.32984 | 4.71698 | -1 ft | 24 kts | 131° |
| 2026-04-17 13:26 | 52.32872 | 4.71904 | -1 ft | 21 kts | 132° |
| 2026-04-17 13:26 | 52.32836 | 4.72083 | -1 ft | 14 kts | 87° |
| 2026-04-17 13:26 | 52.32830 | 4.72236 | -1 ft | 13 kts | 117° |
| 2026-04-17 13:27 | 52.32778 | 4.72337 | -1 ft | 11 kts | 131° |
| 2026-04-17 13:27 | 52.32731 | 4.72424 | -1 ft | 9 kts | 131° |
| 2026-04-17 13:27 | 52.32681 | 4.72516 | -1 ft | 11 kts | 133° |
| 2026-04-17 13:27 | 52.32601 | 4.72635 | -1 ft | 19 kts | 139° |
| 2026-04-17 13:28 | 52.32496 | 4.72783 | -1 ft | 21 kts | 139° |
| 2026-04-17 13:28 | 52.32381 | 4.72944 | -1 ft | 23 kts | 140° |
| 2026-04-17 13:28 | 52.32261 | 4.73112 | -1 ft | 20 kts | 139° |
| 2026-04-17 13:28 | 52.32187 | 4.73217 | -1 ft | 13 kts | 139° |
| 2026-04-17 13:29 | 52.32129 | 4.73304 | -1 ft | 10 kts | 139° |
| 2026-04-17 13:29 | 52.32080 | 4.73374 | -1 ft | 9 kts | 135° |
| 2026-04-17 13:29 | 52.32057 | 4.73479 | -1 ft | 14 kts | 98° |
| 2026-04-17 13:29 | 52.32050 | 4.73637 | -1 ft | 13 kts | 93° |
| 2026-04-17 13:30 | 52.32046 | 4.73777 | -1 ft | 12 kts | 93° |
| 2026-04-17 13:30 | 52.32042 | 4.73905 | -2 ft | 11 kts | 93° |
| 2026-04-17 13:30 | 52.32038 | 4.74031 | -2 ft | 10 kts | 93° |
| 2026-04-17 13:30 | 52.32034 | 4.74138 | -1 ft | 10 kts | 93° |
| 2026-04-17 13:31 | 52.32013 | 4.74307 | 26 ft | 16 kts | 125° |
| 2026-04-17 13:31 | 52.31905 | 4.74332 | -1 ft | 17 kts | 182° |
| 2026-04-17 13:31 | 52.31782 | 4.74319 | -1 ft | 19 kts | 184° |
| 2026-04-17 13:31 | 52.31648 | 4.74307 | -1 ft | 20 kts | 183° |
| 2026-04-17 13:32 | 52.31521 | 4.74297 | -1 ft | 15 kts | 181° |
| 2026-04-17 13:32 | 52.31477 | 4.74374 | -1 ft | 10 kts | 97° |
| 2026-04-17 13:32 | 52.31479 | 4.74498 | -1 ft | 15 kts | 86° |
| 2026-04-17 13:32 | 52.31486 | 4.74669 | -1 ft | 17 kts | 87° |
| 2026-04-17 13:33 | 52.31493 | 4.74914 | -1 ft | 23 kts | 86° |
| 2026-04-17 13:33 | 52.31502 | 4.75186 | -1 ft | 25 kts | 87° |
| 2026-04-17 13:33 | 52.31510 | 4.75385 | -1 ft | 10 kts | 87° |
| 2026-04-17 13:33 | 52.31454 | 4.75439 | -1 ft | 12 kts | 176° |
| 2026-04-17 13:34 | 52.31381 | 4.75444 | -1 ft | 12 kts | 178° |
| 2026-04-17 13:34 | 52.31289 | 4.75450 | -1 ft | 14 kts | 178° |
| 2026-04-17 13:34 | 52.31209 | 4.75461 | -1 ft | 11 kts | 175° |
| 2026-04-17 13:34 | 52.31133 | 4.75461 | -1 ft | 9 kts | 190° |
| 2026-04-17 13:35 | 52.31099 | 4.75385 | -1 ft | 9 kts | 252° |
| 2026-04-17 13:35 | 52.31056 | 4.75303 | -1 ft | 9 kts | 213° |
| 2026-04-17 13:35 | 52.31019 | 4.75320 | -1 ft | 3 kts | 144° |
| 2026-04-17 13:35 | 52.31002 | 4.75337 | -1 ft | 2 kts | 147° |
| 2026-04-17 13:36 | 52.30996 | 4.75344 | -1 ft | 2 kts | 148° |
| 2026-04-17 13:36 | 52.30987 | 4.75352 | -1 ft | 1 kts | 148° |
| 2026-04-17 13:36 | 52.30985 | 4.75355 | -1 ft | 0 kts | 148° |
| 2026-04-17 13:36 | 52.30983 | 4.75357 | -1 ft | 0 kts | 148° |